createdAt,value
2018-12-06T00:09:07.247Z,101068.39
2018-12-06T00:19:35.297Z,101057.87
2018-12-06T00:24:38.269Z,101043.06
2018-12-06T00:35:26.655Z,101034.25
2018-12-06T00:40:44.595Z,101028.59
2018-12-06T00:45:48.643Z,101029.40
2018-12-06T00:50:52.028Z,101031.41
2018-12-06T00:55:57.862Z,101025.22
2018-12-06T01:23:40.216Z,101016.59
2018-12-06T01:28:43.203Z,101019.16
2018-12-06T01:39:10.365Z,101020.50
2018-12-06T01:44:14.883Z,101016.95
2018-12-06T01:49:19.344Z,101008.20
2018-12-06T01:54:25.210Z,101008.62
2018-12-06T01:59:34.421Z,100999.60
2018-12-06T02:21:40.212Z,100977.94
2018-12-06T02:26:44.016Z,100976.53
2018-12-06T02:31:47.585Z,100978.73
2018-12-06T02:36:50.668Z,100920.68
2018-12-06T02:47:18.305Z,100971.02
2018-12-06T02:52:21.304Z,100963.23
2018-12-06T02:57:24.294Z,100959.83
2018-12-06T03:16:50.396Z,100924.10
2018-12-06T03:27:41.578Z,100911.81
2018-12-06T03:32:45.267Z,100897.82
2018-12-06T03:43:17.433Z,100895.22
2018-12-06T03:48:21.130Z,100897.19
2018-12-06T03:53:27.199Z,100899.41
2018-12-06T03:58:30.474Z,100904.15
2018-12-06T04:03:33.455Z,100912.22
2018-12-06T04:08:36.438Z,100904.73
2018-12-06T04:13:39.439Z,100899.95
2018-12-06T04:18:42.726Z,100903.79
2018-12-06T04:40:38.401Z,100924.38
2018-12-06T04:51:09.889Z,100909.11
2018-12-06T04:56:13.092Z,100911.33
2018-12-06T05:01:16.187Z,100922.64
2018-12-06T05:06:19.496Z,100909.62
2018-12-06T05:11:22.530Z,100901.53
2018-12-06T05:16:25.665Z,100905.07
2018-12-06T05:21:28.765Z,100898.63
2018-12-06T05:26:31.952Z,100905.03
2018-12-06T05:31:35.056Z,100916.69
2018-12-06T05:36:38.104Z,100913.61
2018-12-06T05:41:41.233Z,100913.03
2018-12-06T05:46:44.281Z,100927.35
2018-12-06T05:51:47.549Z,100928.14
2018-12-06T05:56:50.580Z,100936.38
2018-12-06T06:01:53.593Z,100934.14
2018-12-06T06:12:23.220Z,100937.20
2018-12-06T06:28:18.622Z,100918.48
2018-12-06T06:33:21.628Z,100935.76
2018-12-06T06:38:25.246Z,100921.03
2018-12-06T06:43:28.229Z,100923.96
2018-12-06T06:53:52.903Z,100912.47
2018-12-06T06:58:55.908Z,100912.81
2018-12-06T07:03:59.072Z,100938.15
2018-12-06T07:09:03.995Z,100950.34
2018-12-06T07:14:07.029Z,100965.53
2018-12-06T07:19:10.243Z,100963.35
2018-12-06T07:24:13.432Z,100989.70
2018-12-06T07:29:16.526Z,101013.05
2018-12-06T07:34:19.533Z,101011.52
2018-12-06T07:39:22.526Z,101013.79
2018-12-06T07:44:25.524Z,101020.20
2018-12-06T07:49:28.509Z,101017.48
2018-12-06T07:54:31.524Z,101015.13
2018-12-06T07:59:34.645Z,101017.31
2018-12-06T08:04:37.636Z,101015.48
2018-12-06T08:09:40.613Z,101020.58
2018-12-06T08:14:43.735Z,101015.91
2018-12-06T08:19:46.772Z,101029.47
2018-12-06T08:24:49.747Z,101040.76
2018-12-06T08:29:52.830Z,101049.47
2018-12-06T08:34:55.808Z,101060.80
2018-12-06T08:39:58.805Z,101064.28
2018-12-06T08:45:01.894Z,101061.93
2018-12-06T08:50:05.596Z,101061.41
2018-12-06T08:55:09.049Z,101050.23
2018-12-06T09:00:12.461Z,101044.64
2018-12-06T09:05:15.903Z,101038.61
2018-12-06T09:10:19.114Z,101017.44
2018-12-06T09:15:22.226Z,101004.98
2018-12-06T09:25:49.761Z,100998.20
2018-12-06T09:30:52.921Z,100998.41
2018-12-06T09:35:55.961Z,101007.89
2018-12-06T09:40:59.065Z,101002.33
2018-12-06T09:46:02.113Z,101008.64
2018-12-06T09:51:05.262Z,101009.47
2018-12-06T09:56:08.420Z,101005.44
2018-12-06T10:01:11.444Z,101006.95
2018-12-06T10:06:14.434Z,101000.15
2018-12-06T10:11:17.417Z,101012.70
2018-12-06T10:16:20.403Z,100996.81
2018-12-06T10:21:23.384Z,100987.98
2018-12-06T10:26:26.402Z,100994.20
2018-12-06T10:31:29.427Z,100992.13
2018-12-06T10:36:32.429Z,100979.52
2018-12-06T10:41:35.628Z,100983.60
2018-12-06T10:46:38.628Z,100987.21
2018-12-06T10:51:43.224Z,100999.06
2018-12-06T10:56:46.416Z,100988.63
2018-12-06T11:01:56.175Z,100922.06
2018-12-06T11:06:59.195Z,101006.27
2018-12-06T11:12:02.495Z,101006.07
2018-12-06T11:17:05.700Z,101002.79
2018-12-06T11:22:08.748Z,100999.80
2018-12-06T11:27:11.750Z,100998.02
2018-12-06T11:32:14.830Z,100990.70
2018-12-06T11:37:17.854Z,100986.63
2018-12-06T11:42:20.962Z,100986.91
2018-12-06T11:47:23.987Z,100996.95
2018-12-06T11:52:27.052Z,100994.08
2018-12-06T11:57:30.081Z,100986.44
2018-12-06T12:02:34.182Z,100983.14
2018-12-06T12:07:39.722Z,100988.63
2018-12-06T12:12:43.555Z,100996.64
2018-12-06T12:17:46.584Z,100996.09
2018-12-06T12:22:50.113Z,100974.20
2018-12-06T12:27:53.924Z,100969.98
2018-12-06T12:38:45.392Z,100979.69
2018-12-06T12:43:49.487Z,100993.25
2018-12-06T12:48:52.456Z,100990.86
2018-12-06T12:53:55.432Z,100995.88
2018-12-06T13:04:23.032Z,101005.81
2018-12-06T13:09:26.023Z,101021.05
2018-12-06T13:14:29.144Z,101010.37
2018-12-06T13:19:32.165Z,101010.86
2018-12-06T13:24:35.344Z,101012.36
2018-12-06T13:29:38.383Z,101018.23
2018-12-06T13:34:41.477Z,101015.37
2018-12-06T13:39:44.671Z,101010.46
2018-12-06T13:44:47.770Z,100994.13
2018-12-06T13:49:50.894Z,100989.77
2018-12-06T13:54:54.042Z,100982.14
2018-12-06T14:05:21.952Z,100992.14
2018-12-06T14:10:25.813Z,100982.20
2018-12-06T14:15:28.876Z,100993.61
2018-12-06T14:20:31.886Z,100996.76
2018-12-06T14:25:34.863Z,100995.55
2018-12-06T14:30:37.827Z,100984.62
2018-12-06T14:35:40.968Z,100988.67
2018-12-06T14:40:44.005Z,100993.53
2018-12-06T14:45:47.401Z,100982.16
2018-12-06T14:50:50.913Z,101000.67
2018-12-06T14:55:54.108Z,100999.59
2018-12-06T15:00:57.120Z,101003.81
2018-12-06T15:06:00.228Z,101011.25
2018-12-06T15:11:03.288Z,101017.63
2018-12-06T15:16:06.489Z,101010.95
2018-12-06T15:21:09.527Z,101010.51
2018-12-06T15:31:38.780Z,101011.65
2018-12-06T15:36:42.106Z,101006.12
2018-12-06T15:41:45.356Z,101009.38
2018-12-06T15:46:48.368Z,101005.95
2018-12-06T15:51:51.393Z,101009.02
2018-12-06T15:56:54.476Z,101009.64
2018-12-06T16:01:57.789Z,101004.70
2018-12-06T16:07:00.793Z,101001.08
2018-12-06T16:12:04.024Z,100991.89
2018-12-06T16:17:07.177Z,100989.87
2018-12-06T16:22:10.268Z,100986.16
2018-12-06T16:27:13.320Z,100992.28
2018-12-06T16:32:16.361Z,100973.06
2018-12-06T16:37:19.413Z,100978.99
2018-12-06T16:47:47.174Z,100986.91
2018-12-06T16:52:50.236Z,100987.70
2018-12-06T16:57:53.271Z,100994.21
2018-12-06T17:02:56.256Z,100993.85
2018-12-06T17:07:59.251Z,100988.57
2018-12-06T17:13:02.342Z,100990.84
2018-12-06T17:18:05.364Z,100993.05
2018-12-06T17:23:08.354Z,100982.95
2018-12-06T17:28:11.334Z,100984.56
2018-12-06T17:33:14.310Z,100989.91
2018-12-06T17:38:17.300Z,100978.81
2018-12-06T17:43:20.306Z,100976.77
2018-12-06T17:48:23.277Z,100979.20
2018-12-06T17:53:26.407Z,100973.84
2018-12-06T17:58:29.452Z,100976.98
2018-12-06T18:03:32.446Z,100958.81
2018-12-06T18:08:35.471Z,100958.48
2018-12-06T18:13:38.649Z,100954.38
2018-12-06T18:18:42.141Z,100944.73
2018-12-06T18:23:45.179Z,100947.11
2018-12-06T18:28:48.166Z,100951.48
2018-12-06T18:33:51.280Z,100952.89
2018-12-06T18:38:54.287Z,100954.11
2018-12-06T18:43:57.314Z,100939.96
2018-12-06T18:49:00.337Z,100948.64
2018-12-06T18:54:03.581Z,100953.17
2018-12-06T18:59:06.676Z,100966.90
2018-12-06T19:09:19.345Z,100939.88
2018-12-06T19:14:22.589Z,100928.52
2018-12-06T19:19:25.889Z,100927.61
2018-12-06T19:24:29.357Z,100923.22
2018-12-06T19:29:32.440Z,100923.16
2018-12-06T19:34:36.068Z,100922.09
2018-12-06T19:39:39.147Z,100917.97
2018-12-06T19:44:42.124Z,100911.57
2018-12-06T19:49:45.218Z,100903.51
2018-12-06T19:54:48.187Z,100902.58
2018-12-06T19:59:51.256Z,100897.03
2018-12-06T20:04:54.649Z,100893.89
2018-12-06T20:09:58.724Z,100877.46
2018-12-06T20:20:27.786Z,100860.37
2018-12-06T20:30:53.627Z,100850.52
2018-12-06T20:35:59.243Z,100850.13
2018-12-06T20:41:03.699Z,100841.73
2018-12-06T20:46:10.817Z,100836.39
2018-12-06T20:51:15.263Z,100831.00
2018-12-06T20:56:19.656Z,100829.48
2018-12-06T21:01:24.207Z,100817.72
2018-12-06T21:06:31.170Z,100819.30
2018-12-06T21:11:36.815Z,100824.08
2018-12-06T21:22:05.268Z,100800.97
2018-12-06T21:27:08.462Z,100798.08
2018-12-06T21:32:11.425Z,100804.39
2018-12-06T21:37:14.405Z,100814.12
2018-12-06T21:42:17.387Z,100813.48
2018-12-06T21:47:25.954Z,100820.63
2018-12-06T21:52:29.329Z,100816.64
2018-12-06T21:57:32.377Z,100807.22
2018-12-06T22:02:35.431Z,100798.50
2018-12-06T22:07:38.595Z,100806.25
2018-12-06T22:12:41.784Z,100797.57
2018-12-06T22:17:44.825Z,100789.08
2018-12-06T22:22:47.939Z,100780.26
2018-12-06T22:27:51.003Z,100779.42
2018-12-06T22:32:54.003Z,100778.28
2018-12-06T22:37:59.951Z,100780.86
2018-12-06T22:43:02.948Z,100790.91
2018-12-06T22:53:21.172Z,100782.22
2018-12-06T22:58:24.152Z,100774.89
2018-12-06T23:03:28.171Z,100784.40
2018-12-06T23:08:31.310Z,100772.83
2018-12-06T23:13:34.328Z,100764.50
2018-12-06T23:18:37.329Z,100753.53
2018-12-06T23:23:40.309Z,100768.00
2018-12-06T23:28:43.300Z,100762.80
2018-12-06T23:39:01.211Z,100771.63
2018-12-06T23:44:04.292Z,100761.71
2018-12-06T23:54:28.724Z,100761.52
2018-12-06T23:59:31.668Z,100759.08
